Time;durP1;ratioP1;P1;durP2;ratioP2;P2;SDS_P1;SDS_P2;PMS_P1;PMS_P2;Temp;Humidity;BMP_temperature;BMP_pressure;BME280_temperature;BME280_humidity;BME280_pressure;Samples;Min_cycle;Max_cycle;Signal;HPM_P1;HPM_P2
2021/12/25 00:02:20;;;;;;;0.77;0.40;;;-2.20;99.90;;;;;;5047708;28;20187;-79
2021/12/25 00:04:45;;;;;;;0.50;0.30;;;-2.20;99.90;;;;;;5047842;28;20197;-79
2021/12/25 00:07:11;;;;;;;0.20;0.20;;;-2.30;99.90;;;;;;5030357;28;20395;-79
2021/12/25 00:09:37;;;;;;;0.20;0.20;;;-2.30;99.90;;;;;;5030280;28;20178;-78
2021/12/25 00:12:03;;;;;;;1.13;0.30;;;-2.30;99.90;;;;;;5030094;28;20227;-79
2021/12/25 00:14:28;;;;;;;1.53;0.30;;;-2.30;99.90;;;;;;5047216;28;20225;-80
2021/12/25 00:16:54;;;;;;;1.60;0.20;;;-2.40;99.90;;;;;;5030537;28;20183;-80
2021/12/25 00:19:19;;;;;;;0.73;0.30;;;-2.40;99.90;;;;;;5030179;28;21199;-77
2021/12/25 00:21:45;;;;;;;0.30;0.10;;;-2.50;99.90;;;;;;5030408;28;20197;-80
2021/12/25 00:24:10;;;;;;;0.93;0.33;;;-2.40;99.90;;;;;;5029948;28;20299;-79
2021/12/25 00:26:44;;;;;;;0.90;0.30;;;-2.40;99.90;;;;;;5047971;28;20217;-78
2021/12/25 00:31:57;;;;;;;0.23;0.20;;;-2.60;99.90;;;;;;5046361;28;20609;-78
2021/12/25 00:34:23;;;;;;;0.10;0.10;;;-2.60;99.90;;;;;;5046155;28;20209;-79
2021/12/25 00:36:50;;;;;;;0.73;0.30;;;-2.60;99.90;;;;;;5047661;28;20236;-78
2021/12/25 00:39:16;;;;;;;0.70;0.47;;;-2.60;99.90;;;;;;5047863;28;20194;-80
2021/12/25 00:41:41;;;;;;;2.73;0.30;;;-2.70;99.90;;;;;;5030797;28;20239;-79
2021/12/25 00:44:07;;;;;;;0.30;0.20;;;-2.70;99.90;;;;;;5047673;28;21025;-78
2021/12/25 00:46:33;;;;;;;0.60;0.20;;;-2.60;99.90;;;;;;5048179;28;20233;-79
2021/12/25 00:48:59;;;;;;;0.37;0.20;;;-2.70;99.90;;;;;;5048032;28;20194;-79
2021/12/25 00:51:24;;;;;;;0.20;0.13;;;-2.70;99.90;;;;;;5047885;28;20189;-78
2021/12/25 00:53:50;;;;;;;4.37;0.40;;;-2.80;99.90;;;;;;5030004;28;20201;-78
2021/12/25 00:56:16;;;;;;;0.63;0.20;;;-2.80;99.90;;;;;;5047885;28;20193;-78
2021/12/25 00:58:41;;;;;;;0.30;0.20;;;-2.80;99.90;;;;;;5047597;28;20185;-79
2021/12/25 01:01:07;;;;;;;0.80;0.20;;;-2.80;99.90;;;;;;5030283;28;20309;-79
2021/12/25 01:03:33;;;;;;;0.23;0.23;;;-2.80;99.90;;;;;;5047848;28;20198;-77
2021/12/25 01:05:59;;;;;;;0.50;0.40;;;-2.80;99.90;;;;;;5030417;28;20293;-80
2021/12/25 01:08:25;;;;;;;0.70;0.30;;;-2.80;99.90;;;;;;5029590;28;20209;-78
2021/12/25 01:10:51;;;;;;;0.80;0.30;;;-2.80;99.90;;;;;;5047262;28;20190;-77
2021/12/25 01:13:43;;;;;;;0.33;0.23;;;-2.80;99.90;;;;;;5047465;28;20248;-80
2021/12/25 01:16:26;;;;;;;0.30;0.20;;;-2.80;99.90;;;;;;5047898;28;20730;-80
2021/12/25 01:19:24;;;;;;;1.20;0.20;;;-2.70;99.90;;;;;;5054294;28;20193;-79
2021/12/25 01:27:16;;;;;;;0.87;0.40;;;-2.70;99.90;;;;;;5053705;28;20569;-79
2021/12/25 01:32:50;;;;;;;1.63;0.40;;;-2.70;99.90;;;;;;5050726;28;20194;-79
2021/12/25 01:48:48;;;;;;;0.73;0.20;;;-2.80;99.90;;;;;;5047388;28;20328;-78
2021/12/25 01:51:14;;;;;;;0.53;0.30;;;-2.90;99.90;;;;;;5046729;28;20268;-79
2021/12/25 01:53:39;;;;;;;0.20;0.20;;;-3.00;99.90;;;;;;5046900;28;20623;-79
2021/12/25 01:56:05;;;;;;;1.00;0.20;;;-2.90;99.90;;;;;;5046955;28;20178;-79
2021/12/25 01:58:33;;;;;;;1.10;0.30;;;-2.90;99.90;;;;;;5046910;28;20190;-78
2021/12/25 02:00:59;;;;;;;2.30;0.30;;;-2.90;99.90;;;;;;5045486;28;20221;-81
2021/12/25 02:03:27;;;;;;;0.40;0.10;;;-3.10;99.90;;;;;;5028994;28;20224;-76
2021/12/25 02:05:54;;;;;;;0.70;0.27;;;-3.20;99.90;;;;;;5046083;28;20246;-78
2021/12/25 02:08:20;;;;;;;0.77;0.30;;;-3.20;99.90;;;;;;5028636;28;20335;-81
2021/12/25 02:10:47;;;;;;;0.10;0.10;;;-3.20;99.90;;;;;;5028728;28;20281;-79
2021/12/25 02:13:13;;;;;;;1.00;0.30;;;-3.30;99.90;;;;;;5029312;28;20229;-79
2021/12/25 02:15:46;;;;;;;1.83;0.27;;;-3.30;99.90;;;;;;5046316;28;20623;-80
2021/12/25 02:18:18;;;;;;;1.30;0.40;;;-3.30;99.90;;;;;;5028915;28;20193;-78
2021/12/25 02:23:24;;;;;;;0.83;0.30;;;-3.40;99.90;;;;;;5046007;28;20224;-80
2021/12/25 02:25:56;;;;;;;1.07;0.60;;;-3.50;99.90;;;;;;5026751;28;20190;-83
2021/12/25 02:28:23;;;;;;;1.07;0.27;;;-3.50;99.90;;;;;;5028434;28;20694;-81
2021/12/25 02:30:52;;;;;;;1.10;0.40;;;-3.60;99.90;;;;;;5045885;28;20789;-79
2021/12/25 02:33:17;;;;;;;0.97;0.30;;;-3.70;99.90;;;;;;5028246;28;20198;-79
2021/12/25 02:35:44;;;;;;;0.70;0.23;;;-3.60;99.90;;;;;;5046055;28;20235;-79
2021/12/25 02:38:10;;;;;;;0.30;0.30;;;-3.70;99.90;;;;;;5046480;28;20204;-80
2021/12/25 02:40:36;;;;;;;1.40;0.53;;;-3.70;99.90;;;;;;5028897;28;20182;-79
2021/12/25 02:43:01;;;;;;;0.40;0.30;;;-3.70;99.90;;;;;;5028514;28;20212;-80
2021/12/25 02:45:27;;;;;;;0.73;0.50;;;-3.80;99.90;;;;;;5028649;28;20875;-80
2021/12/25 02:47:55;;;;;;;0.83;0.30;;;-3.80;99.90;;;;;;5046555;28;20271;-77
2021/12/25 02:50:29;;;;;;;1.07;0.37;;;-3.80;99.90;;;;;;5046351;28;20174;-76
2021/12/25 02:52:57;;;;;;;0.70;0.50;;;-3.80;99.90;;;;;;5027989;28;20209;-78
2021/12/25 02:55:24;;;;;;;0.70;0.70;;;-3.90;99.90;;;;;;5045122;28;20186;-79
2021/12/25 02:57:52;;;;;;;0.73;0.50;;;-3.90;99.90;;;;;;5028660;28;20194;-81
2021/12/25 03:00:26;;;;;;;1.70;0.60;;;-4.00;99.90;;;;;;5028880;28;20220;-78
2021/12/25 03:02:52;;;;;;;0.53;0.40;;;-4.10;99.90;;;;;;5045944;28;20267;-79
2021/12/25 03:05:18;;;;;;;1.83;0.33;;;-4.10;99.90;;;;;;5028962;28;20195;-76
2021/12/25 03:07:45;;;;;;;2.50;0.97;;;-4.20;99.90;;;;;;5028472;28;20209;-78
2021/12/25 03:10:13;;;;;;;0.97;0.80;;;-4.20;99.90;;;;;;5045778;28;20551;-82
2021/12/25 03:13:06;;;;;;;1.37;0.57;;;-4.30;99.90;;;;;;5028479;28;20205;-77
2021/12/25 03:15:45;;;;;;;1.10;0.60;;;-4.30;99.90;;;;;;5046209;28;20190;-78
2021/12/25 03:18:18;;;;;;;0.53;0.37;;;-4.30;99.90;;;;;;5046340;28;20186;-80
2021/12/25 03:20:46;;;;;;;0.73;0.40;;;-4.20;99.90;;;;;;5045976;28;20182;-78
2021/12/25 03:23:18;;;;;;;3.03;0.50;;;-4.20;99.90;;;;;;5028469;28;20698;-78
2021/12/25 03:25:45;;;;;;;0.50;0.30;;;-4.30;99.90;;;;;;5045871;28;20187;-79
2021/12/25 03:28:11;;;;;;;3.80;0.40;;;-4.40;99.90;;;;;;5044737;28;20206;-77
2021/12/25 03:30:39;;;;;;;1.20;0.37;;;-4.50;99.90;;;;;;5046281;28;20544;-78
2021/12/25 03:33:10;;;;;;;0.53;0.30;;;-4.40;99.90;;;;;;5030479;28;20209;-79
2021/12/25 03:35:36;;;;;;;0.47;0.40;;;-4.40;99.90;;;;;;5048822;28;20305;-77
2021/12/25 03:38:04;;;;;;;0.87;0.37;;;-4.50;99.90;;;;;;5031842;28;20748;-81
2021/12/25 03:40:30;;;;;;;2.57;0.30;;;-4.50;99.90;;;;;;5049362;28;20317;-82
2021/12/25 03:42:55;;;;;;;0.83;0.40;;;-4.50;99.90;;;;;;5049917;28;20297;-77
2021/12/25 03:45:21;;;;;;;2.20;0.30;;;-4.50;99.90;;;;;;5031945;28;20185;-76
2021/12/25 03:47:50;;;;;;;0.30;0.10;;;-4.60;99.90;;;;;;5031903;28;20202;-78
2021/12/25 03:53:26;;;;;;;1.03;0.40;;;-4.60;99.90;;;;;;5049212;28;20255;-80
2021/12/25 03:58:37;;;;;;;1.43;0.30;;;-4.70;99.90;;;;;;5049633;28;20240;-78
2021/12/25 04:04:04;;;;;;;1.00;0.30;;;-4.70;99.90;;;;;;5049644;28;20308;-79
2021/12/25 04:06:30;;;;;;;1.17;0.23;;;-4.80;99.90;;;;;;5048413;28;20174;-78
2021/12/25 04:08:57;;;;;;;0.43;0.30;;;-4.80;99.90;;;;;;5048755;28;20189;-79
2021/12/25 04:11:34;;;;;;;2.43;0.40;;;-4.80;99.90;;;;;;5048491;28;20261;-79
2021/12/25 04:14:00;;;;;;;0.90;0.40;;;-4.80;99.90;;;;;;5032245;28;20202;-77
2021/12/25 04:16:28;;;;;;;2.90;0.37;;;-4.80;99.90;;;;;;5050274;28;20186;-77
2021/12/25 04:18:55;;;;;;;0.97;0.40;;;-4.80;99.90;;;;;;5049326;28;20179;-78
2021/12/25 04:21:22;;;;;;;0.40;0.30;;;-4.80;99.90;;;;;;5049185;28;21238;-77
2021/12/25 04:23:48;;;;;;;0.20;0.20;;;-4.80;99.90;;;;;;5031767;28;20668;-77
2021/12/25 04:26:14;;;;;;;0.70;0.30;;;-4.80;99.90;;;;;;5031848;28;20276;-77
2021/12/25 04:47:49;;;;;;;0.67;0.33;;;-4.70;99.90;;;;;;5047509;28;20236;-79
2021/12/25 05:02:19;;;;;;;0.77;0.40;;;-5.00;99.90;;;;;;5048188;28;20196;-77
2021/12/25 05:04:56;;;;;;;1.93;0.40;;;-5.10;99.90;;;;;;5030587;28;20236;-78
2021/12/25 05:07:22;;;;;;;1.80;0.40;;;-5.10;99.90;;;;;;5047697;28;20206;-77
2021/12/25 05:09:47;;;;;;;0.20;0.20;;;-5.20;99.90;;;;;;5030567;28;20189;-78
2021/12/25 05:12:13;;;;;;;1.40;0.53;;;-5.20;99.90;;;;;;5030919;28;20261;-77
2021/12/25 05:14:39;;;;;;;0.73;0.30;;;-5.20;99.90;;;;;;5030118;28;20170;-80
2021/12/25 05:17:07;;;;;;;1.00;0.33;;;-5.30;99.90;;;;;;5029727;28;20186;-77
2021/12/25 05:19:33;;;;;;;1.20;0.30;;;-5.30;99.90;;;;;;5030569;28;20182;-78
2021/12/25 05:21:58;;;;;;;0.50;0.30;;;-5.30;99.90;;;;;;5030000;28;20256;-78
2021/12/25 05:24:24;;;;;;;0.43;0.43;;;-5.40;99.90;;;;;;5030240;28;20228;-78
2021/12/25 05:26:49;;;;;;;0.33;0.30;;;-5.40;99.90;;;;;;5047487;28;20255;-78
2021/12/25 05:29:23;;;;;;;0.53;0.33;;;-5.30;99.90;;;;;;5029633;28;20202;-76
2021/12/25 05:31:49;;;;;;;1.50;0.30;;;-5.40;99.90;;;;;;5029486;28;20182;-77
2021/12/25 05:34:15;;;;;;;1.53;0.47;;;-5.40;99.90;;;;;;5029663;28;21347;-79
2021/12/25 05:36:40;;;;;;;1.53;0.40;;;-5.40;99.90;;;;;;5047660;28;20261;-77
2021/12/25 05:39:11;;;;;;;0.43;0.40;;;-5.30;99.90;;;;;;5029237;28;20179;-75
2021/12/25 05:41:37;;;;;;;1.60;0.33;;;-5.30;99.90;;;;;;5047028;28;20178;-77
2021/12/25 05:44:03;;;;;;;2.37;0.30;;;-5.20;99.90;;;;;;5029129;28;20236;-77
2021/12/25 05:46:28;;;;;;;1.03;0.30;;;-5.40;99.90;;;;;;5028729;28;20190;-77
2021/12/25 05:48:54;;;;;;;0.93;0.37;;;-5.40;99.90;;;;;;5029082;28;20178;-77
2021/12/25 05:51:20;;;;;;;0.50;0.40;;;-5.50;99.90;;;;;;5028905;28;20620;-78
2021/12/25 05:53:46;;;;;;;0.80;0.73;;;-5.50;99.90;;;;;;5029185;28;20644;-78
2021/12/25 05:56:12;;;;;;;1.30;0.30;;;-5.60;99.90;;;;;;5045252;28;20186;-78
2021/12/25 05:58:38;;;;;;;0.50;0.40;;;-5.60;99.90;;;;;;5029160;28;20182;-76
2021/12/25 06:01:04;;;;;;;1.23;0.50;;;-5.60;99.90;;;;;;5028849;28;20209;-78
2021/12/25 06:03:31;;;;;;;0.33;0.30;;;-5.50;99.90;;;;;;5028774;28;20733;-77
2021/12/25 06:05:57;;;;;;;0.30;0.30;;;-5.60;99.90;;;;;;5046039;28;20220;-77
2021/12/25 06:08:26;;;;;;;1.50;0.50;;;-5.60;99.90;;;;;;5045841;28;20210;-77
2021/12/25 06:10:53;;;;;;;1.00;0.40;;;-5.60;99.90;;;;;;5045916;28;20182;-78
2021/12/25 06:13:21;;;;;;;0.40;0.40;;;-5.50;99.90;;;;;;5028370;28;20702;-79
2021/12/25 06:15:47;;;;;;;0.77;0.40;;;-5.60;99.90;;;;;;5028833;28;20178;-78
2021/12/25 06:18:13;;;;;;;1.07;0.33;;;-5.60;99.90;;;;;;5045785;28;20189;-77
2021/12/25 06:20:40;;;;;;;0.90;0.60;;;-5.60;99.90;;;;;;5046218;28;20534;-77
2021/12/25 06:23:05;;;;;;;1.07;0.40;;;-5.60;99.90;;;;;;5027998;28;20646;-77
2021/12/25 06:25:32;;;;;;;1.60;0.50;;;-5.60;99.90;;;;;;5045837;28;20174;-78
2021/12/25 06:27:58;;;;;;;0.30;0.30;;;-5.60;99.90;;;;;;5046280;28;20321;-77
2021/12/25 06:30:24;;;;;;;0.57;0.33;;;-5.70;99.90;;;;;;5044565;28;20194;-77
2021/12/25 06:32:49;;;;;;;0.80;0.40;;;-5.60;99.90;;;;;;5028673;28;20258;-77
2021/12/25 06:35:15;;;;;;;0.30;0.30;;;-5.70;99.90;;;;;;5045877;28;20186;-78
2021/12/25 06:37:42;;;;;;;0.63;0.37;;;-5.70;99.90;;;;;;5028510;28;20179;-77
2021/12/25 06:40:10;;;;;;;0.40;0.30;;;-5.70;99.90;;;;;;5028944;28;20235;-75
2021/12/25 06:42:37;;;;;;;1.60;0.40;;;-5.70;99.90;;;;;;5044762;28;20281;-78
2021/12/25 06:45:04;;;;;;;1.27;0.40;;;-5.80;99.90;;;;;;5024334;28;20213;-78
2021/12/25 06:47:30;;;;;;;2.60;0.80;;;-5.80;99.90;;;;;;5022631;28;20206;-77
2021/12/25 06:49:55;;;;;;;1.30;0.70;;;-5.80;99.90;;;;;;5041918;28;20257;-79
2021/12/25 06:52:21;;;;;;;2.70;1.90;;;-5.70;99.90;;;;;;5024482;28;20178;-79
2021/12/25 06:54:46;;;;;;;0.50;0.30;;;-5.70;99.90;;;;;;5025801;28;20683;-77
2021/12/25 06:57:12;;;;;;;5.10;2.20;;;-5.70;99.90;;;;;;5045656;28;20182;-77
2021/12/25 06:59:37;;;;;;;1.90;1.23;;;-5.70;99.90;;;;;;5045202;28;20186;-77
2021/12/25 07:02:03;;;;;;;0.83;0.50;;;-5.70;99.90;;;;;;5027460;28;20579;-80
2021/12/25 07:04:29;;;;;;;1.03;0.67;;;-5.80;99.90;;;;;;5045436;28;20301;-78
2021/12/25 07:06:54;;;;;;;2.27;1.07;;;-5.80;99.90;;;;;;5046697;28;20198;-79
2021/12/25 07:09:20;;;;;;;7.87;2.60;;;-5.70;99.90;;;;;;5031669;28;20255;-77
2021/12/25 07:11:46;;;;;;;11.97;5.00;;;-5.80;99.90;;;;;;5031448;28;20197;-78
2021/12/25 07:14:12;;;;;;;39.20;15.47;;;-5.80;99.90;;;;;;5049363;28;20702;-75
2021/12/25 07:16:39;;;;;;;10.80;3.37;;;-5.70;99.90;;;;;;5049487;28;20178;-78
2021/12/25 07:19:05;;;;;;;19.53;7.67;;;-5.80;99.90;;;;;;5031888;28;20178;-77
2021/12/25 07:21:30;;;;;;;34.23;13.87;;;-5.80;99.90;;;;;;5049845;28;20189;-79
2021/12/25 07:23:56;;;;;;;86.63;32.37;;;-5.90;99.90;;;;;;5031932;28;20222;-75
2021/12/25 07:26:23;;;;;;;332.43;117.53;;;-5.90;99.90;;;;;;5031777;28;20588;-76
2021/12/25 07:28:49;;;;;;;273.47;100.60;;;-5.90;99.90;;;;;;5031873;28;20315;-77
2021/12/25 07:31:18;;;;;;;112.33;42.57;;;-5.90;99.90;;;;;;5049234;28;20660;-78
2021/12/25 07:33:44;;;;;;;100.80;39.70;;;-5.80;99.90;;;;;;5032050;28;20213;-77
2021/12/25 07:36:12;;;;;;;305.30;114.47;;;-5.80;99.90;;;;;;5031973;28;20179;-76
2021/12/25 07:38:37;;;;;;;67.73;34.20;;;-5.70;99.90;;;;;;5031626;28;20548;-77
2021/12/25 07:41:03;;;;;;;7.80;5.57;;;-5.70;99.90;;;;;;5046164;28;20216;-76
2021/12/25 07:43:29;;;;;;;3.50;2.90;;;-5.60;99.90;;;;;;5048541;28;20213;-77
2021/12/25 07:45:55;;;;;;;19.90;13.27;;;-5.60;99.90;;;;;;5048731;28;20190;-75
2021/12/25 07:48:23;;;;;;;23.27;17.30;;;-5.70;99.90;;;;;;5030970;28;20218;-79
2021/12/25 07:50:49;;;;;;;6.30;4.60;;;-5.60;99.90;;;;;;5048041;28;20178;-77
2021/12/25 07:53:16;;;;;;;3.30;2.40;;;-5.60;99.90;;;;;;5030504;28;20209;-78
2021/12/25 07:55:42;;;;;;;7.33;5.50;;;-5.60;99.90;;;;;;5047719;28;20201;-77
2021/12/25 07:58:08;;;;;;;1.10;1.00;;;-5.70;99.90;;;;;;5049107;28;20188;-77
2021/12/25 08:00:35;;;;;;;4.10;2.87;;;-5.70;99.90;;;;;;5048599;28;20187;-77
2021/12/25 08:03:00;;;;;;;1.93;1.73;;;-5.60;99.90;;;;;;5047895;28;20210;-76
2021/12/25 08:05:26;;;;;;;5.90;2.90;;;-5.50;99.90;;;;;;5047150;28;20182;-78
2021/12/25 08:07:52;;;;;;;2.03;1.83;;;-5.40;99.90;;;;;;5046981;28;20281;-76
2021/12/25 08:10:19;;;;;;;6.63;6.03;;;-5.40;99.90;;;;;;5047206;28;20209;-78
2021/12/25 08:12:47;;;;;;;6.50;5.83;;;-5.40;99.90;;;;;;5029504;28;20234;-77
2021/12/25 08:15:16;;;;;;;9.37;8.47;;;-5.30;99.90;;;;;;5048544;28;20182;-78
2021/12/25 08:17:42;;;;;;;4.43;2.70;;;-5.30;99.90;;;;;;5030264;28;20185;-77
2021/12/25 08:20:08;;;;;;;4.40;3.00;;;-5.30;99.90;;;;;;5028280;28;20277;-79
2021/12/25 08:22:35;;;;;;;4.30;2.90;;;-5.30;99.90;;;;;;5047333;28;21581;-78
2021/12/25 08:25:01;;;;;;;3.17;1.47;;;-5.20;99.90;;;;;;5047575;28;20182;-78
2021/12/25 08:27:26;;;;;;;7.77;4.63;;;-5.20;99.90;;;;;;5029370;28;20596;-78
2021/12/25 08:29:53;;;;;;;2.77;1.70;;;-5.10;99.90;;;;;;5029991;28;20194;-79
2021/12/25 08:32:19;;;;;;;1.23;0.90;;;-5.00;99.90;;;;;;5046599;28;20186;-78
2021/12/25 08:34:45;;;;;;;0.50;0.50;;;-5.00;99.90;;;;;;5047756;28;20180;-77
2021/12/25 08:37:12;;;;;;;0.87;0.60;;;-4.90;99.90;;;;;;5032976;28;20277;-78
2021/12/25 08:39:38;;;;;;;1.20;1.10;;;-4.80;99.90;;;;;;5049203;28;20182;-76
2021/12/25 08:42:05;;;;;;;0.63;0.50;;;-4.70;99.90;;;;;;5029532;28;20608;-77
2021/12/25 08:44:41;;;;;;;2.87;0.43;;;-4.70;99.90;;;;;;5030249;28;20205;-79
2021/12/25 08:47:10;;;;;;;1.73;1.10;;;-4.60;99.90;;;;;;5029734;28;20220;-77
2021/12/25 08:49:38;;;;;;;2.93;1.63;;;-4.60;99.90;;;;;;5045213;28;20190;-77
2021/12/25 08:52:08;;;;;;;0.30;0.30;;;-4.60;99.90;;;;;;5029134;28;20182;-77
2021/12/25 08:54:34;;;;;;;0.50;0.40;;;-4.60;99.90;;;;;;5028593;28;20204;-77
2021/12/25 08:57:01;;;;;;;2.00;0.60;;;-4.60;99.90;;;;;;5026879;28;20213;-78
2021/12/25 08:59:27;;;;;;;0.90;0.40;;;-4.60;99.90;;;;;;5043532;28;20232;-77
2021/12/25 09:01:54;;;;;;;1.17;0.60;;;-4.50;99.90;;;;;;5044470;28;20597;-76
2021/12/25 09:04:20;;;;;;;1.20;0.50;;;-4.50;99.90;;;;;;5028288;28;20268;-76
2021/12/25 09:06:46;;;;;;;0.83;0.43;;;-4.50;99.90;;;;;;5045943;28;20186;-77
2021/12/25 09:09:11;;;;;;;1.00;0.30;;;-4.50;99.90;;;;;;5045532;28;20193;-76
2021/12/25 09:11:39;;;;;;;1.17;0.50;;;-4.40;99.90;;;;;;5046225;28;20206;-79
2021/12/25 09:14:05;;;;;;;1.00;0.40;;;-4.40;99.90;;;;;;5045314;28;20299;-76
2021/12/25 09:16:31;;;;;;;20.50;8.77;;;-4.40;99.90;;;;;;5046010;28;20197;-78
2021/12/25 09:18:56;;;;;;;14.70;6.80;;;-4.30;99.90;;;;;;5045087;28;20232;-78
2021/12/25 09:21:22;;;;;;;80.50;33.30;;;-4.30;99.90;;;;;;5027487;28;20201;-77
2021/12/25 09:23:48;;;;;;;51.20;29.80;;;-4.30;99.90;;;;;;5027183;28;20202;-76
2021/12/25 09:26:14;;;;;;;14.60;11.03;;;-4.30;99.90;;;;;;5027190;28;20607;-79
2021/12/25 09:28:40;;;;;;;4.83;3.87;;;-4.40;99.90;;;;;;5045550;28;20233;-76
2021/12/25 09:31:05;;;;;;;3.10;2.90;;;-4.40;99.90;;;;;;5044515;28;20190;-77
2021/12/25 09:33:32;;;;;;;3.20;2.90;;;-4.40;99.90;;;;;;5045076;28;20655;-77
2021/12/25 09:35:57;;;;;;;3.57;3.27;;;-4.40;99.90;;;;;;5026646;28;20182;-77
2021/12/25 09:38:23;;;;;;;4.50;4.10;;;-4.30;99.90;;;;;;5027167;28;20186;-77
2021/12/25 09:40:49;;;;;;;2.67;2.30;;;-4.30;99.90;;;;;;5026158;28;20243;-77
2021/12/25 09:43:18;;;;;;;2.57;2.37;;;-4.30;99.90;;;;;;5045426;28;20286;-78
2021/12/25 09:45:44;;;;;;;1.37;1.27;;;-4.40;99.90;;;;;;5045284;28;20186;-78
2021/12/25 09:48:09;;;;;;;2.50;1.27;;;-4.40;99.90;;;;;;5045007;28;20228;-78
2021/12/25 09:50:35;;;;;;;1.10;1.00;;;-4.30;99.90;;;;;;5045426;28;20178;-78
2021/12/25 09:53:10;;;;;;;0.63;0.50;;;-4.40;99.90;;;;;;5026843;28;20202;-79
2021/12/25 09:55:38;;;;;;;0.50;0.50;;;-4.40;99.90;;;;;;5027539;28;20239;-79
2021/12/25 09:58:04;;;;;;;1.47;0.77;;;-4.50;99.90;;;;;;5045579;28;20185;-79
2021/12/25 10:00:33;;;;;;;0.83;0.70;;;-4.40;99.90;;;;;;5042950;28;20213;-79
2021/12/25 10:02:58;;;;;;;1.70;1.30;;;-4.40;99.90;;;;;;5043660;28;20214;-80
2021/12/25 10:05:24;;;;;;;2.33;2.13;;;-4.40;99.90;;;;;;5027383;28;20209;-79
2021/12/25 10:08:07;;;;;;;1.93;0.60;;;-4.40;99.90;;;;;;5044936;28;20665;-78
2021/12/25 10:11:06;;;;;;;1.33;0.60;;;-4.30;99.90;;;;;;5043671;28;20194;-77
2021/12/25 10:13:39;;;;;;;2.57;0.90;;;-4.30;99.90;;;;;;5040713;28;20252;-77
2021/12/25 10:16:27;;;;;;;0.70;0.40;;;-4.30;99.90;;;;;;5027777;28;20182;-77
2021/12/25 10:19:10;;;;;;;2.67;0.53;;;-4.30;99.90;;;;;;5027391;28;20281;-77
2021/12/25 10:21:36;;;;;;;1.07;0.97;;;-4.30;99.90;;;;;;5044532;28;20182;-77
2021/12/25 10:24:12;;;;;;;1.13;0.77;;;-4.30;99.90;;;;;;5045266;28;20259;-77
2021/12/25 10:26:40;;;;;;;1.03;0.60;;;-4.30;99.90;;;;;;5044807;28;20181;-78
2021/12/25 10:29:26;;;;;;;0.70;0.60;;;-4.20;99.90;;;;;;5044473;28;20194;-77
2021/12/25 10:31:55;;;;;;;2.43;0.60;;;-4.10;99.90;;;;;;5026656;28;20986;-79
2021/12/25 10:34:24;;;;;;;0.80;0.40;;;-4.10;99.90;;;;;;5028035;28;20237;-79
2021/12/25 10:36:51;;;;;;;0.30;0.30;;;-4.10;99.90;;;;;;5045350;28;20186;-77
2021/12/25 10:39:21;;;;;;;0.30;0.30;;;-4.00;99.90;;;;;;5044593;28;20194;-78
2021/12/25 10:41:52;;;;;;;0.80;0.40;;;-4.00;99.90;;;;;;5043911;28;20517;-79
2021/12/25 10:44:31;;;;;;;0.43;0.30;;;-3.90;99.90;;;;;;5043878;28;20339;-78
2021/12/25 10:47:05;;;;;;;0.40;0.30;;;-3.90;99.90;;;;;;5044113;28;20208;-77
2021/12/25 10:49:43;;;;;;;2.70;0.73;;;-3.80;99.90;;;;;;5044991;28;20257;-77
2021/12/25 10:52:14;;;;;;;1.03;0.60;;;-3.80;99.90;;;;;;5045223;28;20209;-78
2021/12/25 10:54:43;;;;;;;1.60;0.43;;;-3.80;99.90;;;;;;5043373;28;20713;-78
2021/12/25 10:57:10;;;;;;;0.40;0.30;;;-3.70;99.90;;;;;;5045075;28;20194;-78
2021/12/25 10:59:47;;;;;;;1.50;0.50;;;-3.70;99.90;;;;;;5043759;28;20190;-78
2021/12/25 11:02:36;;;;;;;0.60;0.43;;;-3.70;99.90;;;;;;5043747;28;20190;-78
2021/12/25 11:05:22;;;;;;;2.33;0.50;;;-3.70;99.90;;;;;;5044491;28;20177;-78
2021/12/25 11:08:00;;;;;;;2.60;0.40;;;-3.70;99.90;;;;;;5045745;28;20237;-79
2021/12/25 11:10:26;;;;;;;25.07;12.87;;;-3.60;99.90;;;;;;5024692;28;20182;-79
2021/12/25 11:12:51;;;;;;;6.57;4.57;;;-3.60;99.90;;;;;;5043945;28;20764;-78
2021/12/25 11:15:21;;;;;;;5.17;4.07;;;-3.50;99.90;;;;;;5045464;28;20221;-78
2021/12/25 11:17:52;;;;;;;4.10;3.70;;;-3.50;99.90;;;;;;5044497;28;20182;-79
2021/12/25 11:20:27;;;;;;;1.43;1.17;;;-3.50;99.90;;;;;;5045039;28;20186;-78
2021/12/25 11:22:56;;;;;;;3.60;2.23;;;-3.50;99.90;;;;;;5026055;28;20225;-78
2021/12/25 11:25:27;;;;;;;2.03;1.77;;;-3.50;99.90;;;;;;5044052;28;20186;-78
2021/12/25 11:27:54;;;;;;;4.53;4.13;;;-3.40;99.90;;;;;;5043404;28;20569;-78
2021/12/25 11:30:23;;;;;;;1.77;1.67;;;-3.40;99.90;;;;;;5026277;28;21024;-77
2021/12/25 11:32:49;;;;;;;2.70;2.13;;;-3.40;99.90;;;;;;5043904;28;20206;-79
2021/12/25 11:35:16;;;;;;;5.07;4.37;;;-3.40;99.90;;;;;;5044449;28;20185;-78
2021/12/25 11:37:43;;;;;;;2.17;2.03;;;-3.30;99.90;;;;;;5044350;28;20182;-77
2021/12/25 11:40:11;;;;;;;4.87;2.60;;;-3.20;99.90;;;;;;5043990;28;20209;-80
2021/12/25 11:42:42;;;;;;;1.93;1.73;;;-3.20;99.90;;;;;;5042428;28;20210;-78
2021/12/25 11:45:13;;;;;;;1.60;1.23;;;-3.20;99.90;;;;;;5043225;28;20190;-77
2021/12/25 11:47:42;;;;;;;3.10;1.50;;;-3.20;99.90;;;;;;5042594;28;20210;-78
2021/12/25 11:50:31;;;;;;;2.27;1.40;;;-3.10;99.90;;;;;;5023255;28;20248;-78
2021/12/25 11:53:18;;;;;;;1.10;0.33;;;-3.10;99.90;;;;;;5042536;28;20213;-78
2021/12/25 11:58:39;;;;;;;2.40;0.40;;;-3.20;99.90;;;;;;5047460;28;20648;-76
2021/12/25 12:01:38;;;;;;;3.40;0.57;;;-3.10;99.90;;;;;;5029140;28;20328;-80
2021/12/25 12:04:10;;;;;;;2.07;0.47;;;-3.20;99.90;;;;;;5046212;28;20236;-78
2021/12/25 12:06:48;;;;;;;1.43;0.50;;;-3.20;99.90;;;;;;5046045;28;20688;-79
2021/12/25 12:09:18;;;;;;;1.03;0.40;;;-3.10;99.90;;;;;;5044848;28;20628;-80
2021/12/25 12:11:46;;;;;;;0.63;0.40;;;-3.10;99.90;;;;;;5028812;28;20179;-80
2021/12/25 12:14:15;;;;;;;0.57;0.40;;;-3.20;99.90;;;;;;5046463;28;20206;-80
2021/12/25 12:16:48;;;;;;;2.13;1.07;;;-3.20;99.90;;;;;;5047082;28;20278;-77
2021/12/25 12:19:36;;;;;;;1.30;0.50;;;-3.20;99.90;;;;;;5028706;28;20186;-80
2021/12/25 12:22:08;;;;;;;0.40;0.40;;;-3.20;99.90;;;;;;5046056;28;20273;-79
2021/12/25 12:24:48;;;;;;;1.20;0.50;;;-3.10;99.90;;;;;;5046154;28;20572;-78
2021/12/25 12:27:36;;;;;;;0.97;0.40;;;-3.20;99.90;;;;;;5046756;28;20205;-77
2021/12/25 12:30:07;;;;;;;0.63;0.53;;;-3.20;99.90;;;;;;5046907;28;20233;-77
2021/12/25 12:32:43;;;;;;;1.67;0.60;;;-3.20;99.90;;;;;;5046515;28;20189;-79
2021/12/25 12:35:33;;;;;;;1.07;0.33;;;-3.20;99.90;;;;;;5047157;28;20212;-78
2021/12/25 12:38:38;;;;;;;0.50;0.40;;;-3.20;99.90;;;;;;5046955;28;20292;-78
2021/12/25 12:41:26;;;;;;;0.70;0.43;;;-3.10;99.90;;;;;;5046274;28;20185;-77
2021/12/25 12:44:03;;;;;;;1.20;0.50;;;-3.20;99.90;;;;;;5047138;28;20213;-79
2021/12/25 12:46:47;;;;;;;3.23;0.73;;;-3.10;99.90;;;;;;5046511;28;20181;-77
2021/12/25 12:49:13;;;;;;;0.80;0.40;;;-3.20;99.90;;;;;;5046342;28;20239;-77
2021/12/25 12:51:39;;;;;;;1.13;0.60;;;-3.10;99.90;;;;;;5045873;28;20178;-78
2021/12/25 12:54:05;;;;;;;1.33;0.50;;;-3.10;99.90;;;;;;5045728;28;20210;-78
2021/12/25 12:56:31;;;;;;;1.47;0.50;;;-3.10;99.90;;;;;;5028477;28;20606;-78
2021/12/25 12:58:58;;;;;;;0.50;0.40;;;-3.20;99.90;;;;;;5028834;28;20206;-78
2021/12/25 13:01:25;;;;;;;1.00;0.60;;;-3.30;99.90;;;;;;5045470;28;20727;-80
2021/12/25 13:03:56;;;;;;;0.90;0.50;;;-3.30;99.90;;;;;;5046776;28;20206;-78
2021/12/25 13:06:26;;;;;;;2.13;0.40;;;-3.20;99.90;;;;;;5045831;28;20263;-77
2021/12/25 13:08:52;;;;;;;1.50;0.40;;;-3.30;99.90;;;;;;5026785;28;20210;-78
2021/12/25 13:11:24;;;;;;;1.23;0.60;;;-3.30;99.90;;;;;;5045418;28;20181;-79
2021/12/25 13:13:57;;;;;;;0.87;0.63;;;-3.30;99.90;;;;;;5045006;28;20209;-77
2021/12/25 13:16:31;;;;;;;0.60;0.40;;;-3.30;99.90;;;;;;5045570;28;20564;-78
2021/12/25 13:19:03;;;;;;;2.43;0.60;;;-3.40;99.90;;;;;;5045730;28;20248;-78
2021/12/25 13:21:30;;;;;;;1.80;0.60;;;-3.40;99.90;;;;;;5046205;28;20218;-78
2021/12/25 13:23:58;;;;;;;2.10;0.70;;;-3.40;99.90;;;;;;5028477;28;20274;-77
2021/12/25 13:26:32;;;;;;;0.60;0.53;;;-3.40;99.90;;;;;;5045015;28;20201;-78
2021/12/25 13:29:00;;;;;;;1.27;0.60;;;-3.50;99.90;;;;;;5046035;28;20213;-78
2021/12/25 13:31:28;;;;;;;2.07;0.83;;;-3.50;99.90;;;;;;5028093;28;20189;-78
2021/12/25 13:33:57;;;;;;;0.70;0.60;;;-3.50;99.90;;;;;;5045778;28;21223;-78
2021/12/25 13:36:29;;;;;;;0.83;0.60;;;-3.50;99.90;;;;;;5028034;28;20182;-79
2021/12/25 13:39:02;;;;;;;1.00;0.53;;;-3.50;99.90;;;;;;5028850;28;20235;-79
2021/12/25 13:41:47;;;;;;;0.87;0.53;;;-3.60;99.90;;;;;;5044247;28;20562;-79
2021/12/25 13:44:18;;;;;;;0.87;0.70;;;-3.60;99.90;;;;;;5046604;28;20222;-78
2021/12/25 13:46:53;;;;;;;0.93;0.87;;;-3.60;99.90;;;;;;5044061;28;20206;-78
2021/12/25 13:49:45;;;;;;;2.43;0.60;;;-3.60;99.90;;;;;;5025561;28;20198;-77
2021/12/25 13:52:20;;;;;;;1.40;0.47;;;-3.60;99.90;;;;;;5027730;28;20190;-79
2021/12/25 13:54:55;;;;;;;1.13;0.57;;;-3.60;99.90;;;;;;5046142;28;20215;-77
2021/12/25 13:57:22;;;;;;;1.27;0.70;;;-3.60;99.90;;;;;;5045999;28;20189;-80
2021/12/25 13:59:50;;;;;;;1.87;0.90;;;-3.60;99.90;;;;;;5027563;28;20186;-80
2021/12/25 14:02:17;;;;;;;0.83;0.50;;;-3.60;99.90;;;;;;5044640;28;20727;-79
2021/12/25 14:04:45;;;;;;;1.53;0.70;;;-3.70;99.90;;;;;;5045470;28;20197;-78
2021/12/25 14:07:14;;;;;;;3.43;0.93;;;-3.60;99.90;;;;;;5045618;28;20218;-79